createdAt,value
2023-05-01T00:01:03.933Z,16.30
2023-05-01T00:11:03.916Z,16.40
2023-05-01T00:21:03.922Z,15.20
2023-05-01T00:31:03.970Z,14.90
2023-05-01T00:41:03.929Z,15.40
2023-05-01T00:51:03.963Z,15.70
2023-05-01T01:01:04.016Z,14.20
2023-05-01T01:11:03.944Z,15.30
2023-05-01T01:21:03.940Z,15.00
2023-05-01T01:31:03.970Z,14.40
2023-05-01T01:41:04.001Z,14.70
2023-05-01T01:51:03.972Z,15.80
2023-05-01T02:01:03.950Z,14.00
2023-05-01T02:11:03.959Z,14.70
2023-05-01T02:21:03.988Z,15.10
2023-05-01T02:31:03.948Z,15.00
2023-05-01T02:41:03.978Z,15.40
2023-05-01T02:51:03.974Z,15.10
2023-05-01T03:01:04.024Z,14.50
2023-05-01T03:11:03.990Z,15.70
2023-05-01T03:21:04.001Z,15.50
2023-05-01T03:31:04.006Z,14.20
2023-05-01T03:41:03.976Z,14.70
2023-05-01T03:51:04.046Z,15.10
2023-05-01T04:01:04.017Z,17.00
2023-05-01T04:11:04.021Z,17.30
2023-05-01T04:21:04.038Z,17.40
2023-05-01T04:31:04.050Z,17.10
2023-05-01T04:41:04.026Z,16.90
2023-05-01T04:51:04.081Z,15.80
2023-05-01T05:01:04.065Z,17.50
2023-05-01T05:11:04.033Z,15.20
2023-05-01T05:21:04.061Z,16.00
2023-05-01T05:31:04.033Z,13.30
2023-05-01T05:41:04.073Z,6.90
2023-05-01T05:51:04.130Z,5.80
2023-05-01T06:01:04.053Z,6.60
2023-05-01T06:11:04.036Z,7.30
2023-05-01T06:21:04.076Z,6.90
2023-05-01T06:31:04.065Z,5.80
2023-05-01T06:41:04.065Z,5.10
2023-05-01T06:51:04.048Z,4.60
2023-05-01T07:01:04.151Z,6.10
2023-05-01T07:11:04.104Z,6.30
2023-05-01T07:21:04.066Z,5.50
2023-05-01T07:31:04.075Z,5.90
2023-05-01T07:41:04.097Z,5.70
2023-05-01T07:51:04.107Z,6.40
2023-05-01T08:01:04.080Z,5.60
2023-05-01T08:11:04.087Z,5.80
2023-05-01T08:21:04.097Z,5.90
2023-05-01T08:31:04.139Z,5.00
2023-05-01T08:41:04.181Z,6.30
2023-05-01T08:51:04.116Z,5.50
2023-05-01T09:01:04.107Z,3.90
2023-05-01T09:11:04.119Z,4.60
2023-05-01T09:21:04.128Z,4.80
2023-05-01T09:31:04.166Z,3.10
2023-05-01T09:41:04.153Z,3.30
2023-05-01T09:51:04.142Z,3.90
2023-05-01T10:01:04.178Z,3.60
2023-05-01T10:11:04.151Z,3.60
2023-05-01T10:21:04.164Z,4.10
2023-05-01T10:31:04.177Z,4.10
2023-05-01T10:41:04.174Z,3.80
2023-05-01T10:51:04.151Z,3.90
2023-05-01T11:01:04.171Z,3.70
2023-05-01T11:11:04.154Z,3.60
2023-05-01T11:31:04.192Z,3.50
2023-05-01T11:41:04.187Z,2.90
2023-05-01T11:51:04.192Z,4.80
2023-05-01T12:01:04.176Z,3.60
2023-05-01T12:11:04.199Z,3.70
2023-05-01T12:21:04.266Z,3.40
2023-05-01T12:31:05.213Z,4.40
2023-05-01T12:41:04.247Z,3.30
2023-05-01T12:51:04.203Z,3.30
2023-05-01T13:01:04.325Z,3.20
2023-05-01T13:11:04.313Z,3.60
2023-05-01T13:21:04.239Z,3.10
2023-05-01T13:31:04.220Z,3.50
2023-05-01T13:41:04.243Z,2.40
2023-05-01T13:51:04.244Z,2.50
2023-05-01T14:01:04.372Z,3.10
2023-05-01T14:11:04.265Z,2.80
2023-05-01T14:21:04.235Z,2.80
2023-05-01T14:31:04.301Z,3.10
2023-05-01T14:41:04.266Z,3.20
2023-05-01T14:51:04.275Z,3.40
2023-05-01T15:01:04.273Z,2.90
2023-05-01T15:11:04.437Z,2.80
2023-05-01T15:21:04.291Z,2.90
2023-05-01T15:31:04.308Z,2.50
2023-05-01T15:41:04.300Z,2.40
2023-05-01T16:01:04.382Z,2.80
2023-05-01T16:11:04.314Z,2.40
2023-05-01T16:21:04.335Z,2.50
2023-05-01T16:31:10.515Z,2.00
2023-05-01T16:41:04.333Z,3.70
2023-05-01T16:51:04.326Z,1.90
2023-05-01T17:41:04.367Z,2.70
2023-05-01T17:51:04.393Z,3.10
2023-05-01T18:01:04.717Z,3.00
2023-05-01T18:11:04.378Z,2.60
2023-05-01T18:21:04.389Z,2.70
2023-05-01T18:31:04.398Z,3.00
2023-05-01T18:41:04.415Z,3.60
2023-05-01T18:51:08.322Z,4.00
2023-05-01T19:01:04.395Z,3.40
2023-05-01T19:11:04.396Z,4.50
2023-05-01T19:21:04.377Z,5.10
2023-05-01T19:31:04.385Z,4.50
2023-05-01T19:41:04.397Z,4.90
2023-05-01T19:51:04.423Z,4.70
2023-05-01T20:01:04.426Z,4.90
2023-05-01T20:11:04.430Z,5.20
2023-05-01T20:21:04.506Z,6.00
2023-05-01T20:31:04.509Z,5.70
2023-05-01T20:41:04.492Z,5.40
2023-05-01T20:51:04.492Z,5.40
2023-05-01T21:01:04.441Z,6.00
2023-05-01T21:11:04.451Z,6.70
2023-05-01T21:21:04.424Z,6.20
2023-05-01T21:31:04.435Z,6.60
2023-05-01T21:41:04.471Z,7.40
2023-05-01T21:51:04.444Z,6.60
2023-05-01T22:01:04.491Z,5.70
2023-05-01T22:11:05.475Z,6.30
2023-05-01T22:21:04.458Z,6.20
2023-05-01T22:31:04.469Z,6.20
2023-05-01T22:41:04.577Z,6.10
2023-05-01T22:51:04.494Z,6.50
2023-05-01T23:01:04.495Z,6.10
2023-05-01T23:11:04.562Z,6.20
2023-05-01T23:21:04.485Z,6.20
2023-05-01T23:31:04.512Z,5.90
2023-05-01T23:41:04.469Z,6.20
2023-05-01T23:51:04.528Z,5.80
